createdAt,value
2022-07-30T00:03:35.057Z,23.56
2022-07-30T00:08:37.883Z,23.49
2022-07-30T00:13:40.844Z,23.37
2022-07-30T00:18:43.877Z,23.35
2022-07-30T00:24:01.237Z,23.29
2022-07-30T00:29:06.169Z,23.22
2022-07-30T00:34:09.069Z,23.18
2022-07-30T00:39:11.935Z,23.12
2022-07-30T00:44:15.099Z,23.03
2022-07-30T00:49:17.989Z,22.96
2022-07-30T00:54:21.541Z,22.91
2022-07-30T00:59:27.721Z,22.85
2022-07-30T01:04:31.143Z,22.86
2022-07-30T01:09:33.947Z,22.82
2022-07-30T01:14:38.218Z,22.71
2022-07-30T01:19:55.297Z,22.62
2022-07-30T01:25:11.103Z,22.51
2022-07-30T01:30:20.306Z,22.39
2022-07-30T01:35:26.167Z,22.29
2022-07-30T01:40:29.729Z,22.25
2022-07-30T01:45:41.373Z,22.27
2022-07-30T01:50:49.283Z,22.32
2022-07-30T01:55:55.176Z,22.40
2022-07-30T02:00:58.962Z,22.46
2022-07-30T02:06:23.248Z,22.53
2022-07-30T02:11:44.901Z,22.54
2022-07-30T02:16:54.400Z,22.55
2022-07-30T02:22:12.760Z,22.57
2022-07-30T02:27:30.627Z,22.51
2022-07-30T02:32:41.005Z,22.51
2022-07-30T02:37:48.433Z,22.52
2022-07-30T02:42:54.073Z,22.50
2022-07-30T02:48:02.503Z,22.48
2022-07-30T02:53:10.975Z,22.40
2022-07-30T02:58:23.373Z,22.35
2022-07-30T03:03:29.452Z,22.31
2022-07-30T03:08:34.386Z,22.27
2022-07-30T03:13:37.261Z,22.21
2022-07-30T03:18:43.125Z,22.09
2022-07-30T03:23:47.974Z,22.05
2022-07-30T03:28:51.345Z,21.95
2022-07-30T03:33:54.637Z,21.90
2022-07-30T03:38:57.811Z,21.80
2022-07-30T03:44:01.563Z,21.71
2022-07-30T03:49:06.147Z,21.54
2022-07-30T03:54:13.819Z,21.53
2022-07-30T03:59:17.112Z,21.52
2022-07-30T04:04:20.124Z,21.58
2022-07-30T04:09:23.578Z,21.58
2022-07-30T04:14:26.341Z,21.55
2022-07-30T04:19:40.132Z,21.59
2022-07-30T04:24:45.295Z,21.58
2022-07-30T04:29:48.349Z,21.59
2022-07-30T04:34:54.391Z,21.64
2022-07-30T04:40:01.078Z,21.68
2022-07-30T04:45:04.709Z,21.77
2022-07-30T04:50:08.996Z,21.90
2022-07-30T04:55:14.309Z,22.01
2022-07-30T05:00:18.113Z,22.04
2022-07-30T05:05:21.882Z,22.08
2022-07-30T05:10:25.634Z,22.11
2022-07-30T05:15:35.966Z,22.23
2022-07-30T05:20:40.684Z,22.37
2022-07-30T05:25:43.924Z,22.53
2022-07-30T05:30:46.683Z,22.63
2022-07-30T05:35:51.267Z,22.76
2022-07-30T05:40:54.150Z,22.91
2022-07-30T05:45:57.053Z,22.96
2022-07-30T05:50:59.784Z,22.99
2022-07-30T05:56:03.138Z,22.99
2022-07-30T06:01:06.057Z,23.00
2022-07-30T06:06:09.001Z,23.08
2022-07-30T06:11:11.892Z,23.15
2022-07-30T06:16:15.203Z,23.19
2022-07-30T06:21:18.074Z,23.31
2022-07-30T06:26:21.061Z,23.42
2022-07-30T06:31:24.342Z,23.57
2022-07-30T06:36:27.176Z,23.68
2022-07-30T06:41:30.050Z,23.73
2022-07-30T06:46:32.936Z,23.83
2022-07-30T06:51:35.709Z,23.84
2022-07-30T06:56:38.515Z,23.87
2022-07-30T07:01:41.561Z,24.00
2022-07-30T07:06:45.161Z,24.22
2022-07-30T07:11:48.125Z,24.37
2022-07-30T07:16:51.277Z,24.51
2022-07-30T07:21:54.196Z,24.67
2022-07-30T07:26:57.130Z,24.69
2022-07-30T07:32:06.003Z,24.67
2022-07-30T07:37:11.022Z,24.70
2022-07-30T07:42:13.934Z,24.70
2022-07-30T07:47:17.040Z,24.88
2022-07-30T07:52:19.997Z,24.92
2022-07-30T07:57:22.929Z,24.92
2022-07-30T08:02:26.617Z,24.95
2022-07-30T08:07:30.797Z,24.75
2022-07-30T08:12:34.311Z,24.52
2022-07-30T08:17:47.438Z,24.21
2022-07-30T08:22:50.838Z,23.84
2022-07-30T08:27:53.917Z,23.52
2022-07-30T08:32:59.257Z,23.32
2022-07-30T08:38:02.051Z,23.21
2022-07-30T08:43:07.431Z,23.14
2022-07-30T08:48:16.462Z,23.10
2022-07-30T08:53:19.922Z,23.06
2022-07-30T08:58:35.210Z,22.97
2022-07-30T09:03:44.059Z,22.97
2022-07-30T09:08:48.101Z,22.99
2022-07-30T09:13:51.122Z,22.96
2022-07-30T09:18:54.940Z,23.04
2022-07-30T09:24:05.868Z,23.12
2022-07-30T09:29:22.183Z,23.09
2022-07-30T09:34:28.442Z,23.13
2022-07-30T09:39:42.499Z,23.05
2022-07-30T09:45:16.183Z,22.90
2022-07-30T09:50:30.024Z,22.69
2022-07-30T09:55:36.234Z,22.43
2022-07-30T10:00:45.393Z,22.17
2022-07-30T10:06:00.401Z,21.84
2022-07-30T10:11:04.984Z,21.50
2022-07-30T10:16:11.824Z,21.11
2022-07-30T10:21:16.811Z,20.57
2022-07-30T10:26:21.153Z,20.15
2022-07-30T10:31:48.519Z,19.88
2022-07-30T10:37:04.637Z,19.74
2022-07-30T10:42:46.327Z,19.64
2022-07-30T10:47:52.346Z,19.55
2022-07-30T10:53:01.299Z,19.51
2022-07-30T10:58:15.548Z,19.47
2022-07-30T11:03:41.513Z,19.55
2022-07-30T11:08:50.562Z,19.61
2022-07-30T11:13:59.033Z,19.70
2022-07-30T11:19:53.353Z,19.80
2022-07-30T11:24:49.023Z,19.89
2022-07-30T11:29:52.020Z,20.02
2022-07-30T11:35:20.318Z,20.27
2022-07-30T11:40:35.304Z,20.51
2022-07-30T11:45:38.289Z,20.71
2022-07-30T11:50:46.100Z,20.85
2022-07-30T11:56:01.342Z,20.99
2022-07-30T12:01:17.262Z,21.11
2022-07-30T12:06:20.632Z,21.22
2022-07-30T12:11:23.347Z,21.38
2022-07-30T12:16:28.163Z,21.50
2022-07-30T12:21:31.366Z,21.45
2022-07-30T12:26:35.227Z,21.44
2022-07-30T12:31:40.288Z,21.43
2022-07-30T12:36:43.108Z,21.42
2022-07-30T12:41:49.478Z,21.54
2022-07-30T12:46:52.639Z,21.62
2022-07-30T12:52:00.311Z,21.55
2022-07-30T12:57:06.315Z,21.44
2022-07-30T13:02:09.695Z,21.34
2022-07-30T13:07:13.055Z,21.33
2022-07-30T13:12:16.732Z,21.18
2022-07-30T13:17:19.514Z,21.02
2022-07-30T13:22:22.468Z,21.04
2022-07-30T13:27:25.587Z,21.13
2022-07-30T13:32:28.412Z,21.20
2022-07-30T13:37:38.499Z,21.17
2022-07-30T13:42:41.559Z,21.06
2022-07-30T13:47:44.371Z,21.02
2022-07-30T13:52:47.400Z,21.07
2022-07-30T13:57:50.838Z,21.06
2022-07-30T14:02:54.605Z,21.07
2022-07-30T14:07:57.883Z,21.06
2022-07-30T14:13:01.362Z,21.03
2022-07-30T14:18:04.441Z,20.97
2022-07-30T14:23:07.412Z,21.09
2022-07-30T14:28:10.570Z,21.33
2022-07-30T14:33:13.411Z,21.58
2022-07-30T14:38:16.510Z,21.89
2022-07-30T14:43:19.741Z,21.84
2022-07-30T14:48:22.539Z,21.98
2022-07-30T14:53:25.381Z,22.11
2022-07-30T14:58:28.372Z,22.16
2022-07-30T15:03:31.139Z,22.20
2022-07-30T15:08:33.897Z,22.27
2022-07-30T15:13:38.643Z,22.33
2022-07-30T15:18:52.654Z,22.56
2022-07-30T15:23:55.509Z,22.56
2022-07-30T15:28:58.512Z,22.39
2022-07-30T15:34:01.294Z,22.34
2022-07-30T15:39:04.126Z,22.42
2022-07-30T15:44:06.924Z,22.53
2022-07-30T15:49:10.191Z,22.57
2022-07-30T15:54:14.097Z,22.51
2022-07-30T15:59:17.270Z,22.69
2022-07-30T16:04:20.228Z,22.87
2022-07-30T16:09:24.143Z,22.92
2022-07-30T16:14:27.495Z,22.76
2022-07-30T16:19:30.295Z,22.74
2022-07-30T16:24:33.494Z,23.07
2022-07-30T16:29:36.335Z,23.39
2022-07-30T16:34:39.519Z,23.57
2022-07-30T16:39:42.418Z,23.80
2022-07-30T16:44:45.326Z,23.84
2022-07-30T16:49:48.194Z,23.47
2022-07-30T16:54:50.984Z,23.17
2022-07-30T16:59:53.863Z,22.84
2022-07-30T17:04:56.625Z,22.54
2022-07-30T17:09:59.449Z,22.30
2022-07-30T17:15:02.839Z,22.14
2022-07-30T17:20:06.799Z,22.04
2022-07-30T17:25:10.384Z,21.99
2022-07-30T17:30:13.478Z,21.95
2022-07-30T17:35:16.609Z,21.90
2022-07-30T17:40:30.783Z,21.88
2022-07-30T17:45:36.954Z,21.79
2022-07-30T17:50:40.086Z,21.73
2022-07-30T17:55:57.305Z,21.66
2022-07-30T18:01:02.895Z,21.59
2022-07-30T18:06:06.206Z,21.55
2022-07-30T18:11:13.516Z,21.49
2022-07-30T18:16:16.709Z,21.46
2022-07-30T18:21:19.473Z,21.42
2022-07-30T18:26:22.706Z,21.40
2022-07-30T18:31:25.485Z,21.34
2022-07-30T18:36:28.746Z,21.31
2022-07-30T18:41:31.645Z,21.28
2022-07-30T18:46:34.962Z,21.25
2022-07-30T18:51:38.256Z,21.13
2022-07-30T18:56:41.086Z,21.05
2022-07-30T19:01:44.219Z,20.99
2022-07-30T19:06:47.498Z,20.94
2022-07-30T19:11:50.374Z,20.92
2022-07-30T19:16:53.816Z,20.88
2022-07-30T19:22:02.381Z,20.85
2022-07-30T19:27:09.835Z,20.81
2022-07-30T19:32:15.181Z,20.79
2022-07-30T19:37:19.363Z,20.75
2022-07-30T19:42:22.249Z,20.72
2022-07-30T19:47:26.264Z,20.70
2022-07-30T19:52:29.347Z,20.64
2022-07-30T19:57:53.014Z,20.60
2022-07-30T20:02:55.346Z,20.53
2022-07-30T20:08:00.686Z,20.48
2022-07-30T20:13:03.526Z,20.45
2022-07-30T20:18:10.353Z,20.43
2022-07-30T20:23:13.221Z,20.38
2022-07-30T20:28:16.239Z,20.35
2022-07-30T20:33:22.567Z,20.29
2022-07-30T20:38:40.399Z,20.20
2022-07-30T20:43:46.172Z,20.16
2022-07-30T20:48:55.836Z,20.13
2022-07-30T20:53:59.301Z,20.05
2022-07-30T20:59:02.405Z,20.00
2022-07-30T21:04:05.866Z,19.95
2022-07-30T21:09:14.174Z,19.88
2022-07-30T21:14:17.643Z,19.83
2022-07-30T21:19:21.218Z,19.80
2022-07-30T21:24:25.571Z,19.74
2022-07-30T21:29:29.262Z,19.68
2022-07-30T21:39:55.464Z,19.58
2022-07-30T21:44:59.502Z,19.52
2022-07-30T21:50:02.525Z,19.45
2022-07-30T21:55:06.258Z,19.40
2022-07-30T22:00:21.969Z,19.35
2022-07-30T22:05:38.861Z,19.30
2022-07-30T22:10:45.028Z,19.26
2022-07-30T22:15:50.054Z,19.21
2022-07-30T22:20:54.197Z,19.20
2022-07-30T22:26:00.172Z,19.20
2022-07-30T22:31:05.642Z,19.17
2022-07-30T22:36:09.853Z,19.13
2022-07-30T22:41:14.608Z,19.10
2022-07-30T22:46:30.213Z,19.04
2022-07-30T22:51:59.306Z,18.97
2022-07-30T22:56:56.910Z,18.93
2022-07-30T23:02:06.931Z,18.88
2022-07-30T23:07:19.085Z,18.86
2022-07-30T23:12:22.329Z,18.81
2022-07-30T23:12:31.193Z,19.62
2022-07-30T23:17:25.815Z,18.77
2022-07-30T23:22:29.728Z,18.73
2022-07-30T23:27:32.712Z,18.69
2022-07-30T23:32:36.758Z,18.66
2022-07-30T23:37:48.387Z,18.60
2022-07-30T23:42:52.606Z,18.56
2022-07-30T23:48:02.464Z,18.51
2022-07-30T23:53:06.121Z,18.49
2022-07-30T23:58:09.612Z,18.45
